sensor_id;sensor_type;location;lat;lon;timestamp;P1;durP1;ratioP1;P2;durP2;ratioP2
62258;SDS011;48241;48.824;10.102;2022-12-07T00:01:13;13.07;;;10.55;;
62258;SDS011;48241;48.824;10.102;2022-12-07T00:03:41;15.07;;;10.88;;
62258;SDS011;48241;48.824;10.102;2022-12-07T00:06:08;13.65;;;10.25;;
62258;SDS011;48241;48.824;10.102;2022-12-07T00:08:35;13.57;;;10.38;;
62258;SDS011;48241;48.824;10.102;2022-12-07T00:11:02;15.15;;;11.50;;
62258;SDS011;48241;48.824;10.102;2022-12-07T00:13:31;15.00;;;11.30;;
62258;SDS011;48241;48.824;10.102;2022-12-07T00:16:01;13.38;;;10.60;;
62258;SDS011;48241;48.824;10.102;2022-12-07T00:18:31;14.40;;;10.82;;
62258;SDS011;48241;48.824;10.102;2022-12-07T00:21:16;13.25;;;10.90;;
62258;SDS011;48241;48.824;10.102;2022-12-07T00:23:46;13.07;;;10.10;;
62258;SDS011;48241;48.824;10.102;2022-12-07T00:26:15;13.52;;;10.52;;
62258;SDS011;48241;48.824;10.102;2022-12-07T00:28:49;14.15;;;11.10;;
62258;SDS011;48241;48.824;10.102;2022-12-07T00:31:16;14.27;;;11.10;;
62258;SDS011;48241;48.824;10.102;2022-12-07T00:33:43;13.73;;;10.23;;
62258;SDS011;48241;48.824;10.102;2022-12-07T00:36:10;13.48;;;10.23;;
62258;SDS011;48241;48.824;10.102;2022-12-07T00:38:37;14.30;;;10.93;;
62258;SDS011;48241;48.824;10.102;2022-12-07T00:41:05;14.38;;;10.57;;
62258;SDS011;48241;48.824;10.102;2022-12-07T00:43:33;14.75;;;10.45;;
62258;SDS011;48241;48.824;10.102;2022-12-07T00:45:58;14.80;;;11.10;;
62258;SDS011;48241;48.824;10.102;2022-12-07T00:48:24;14.95;;;10.77;;
62258;SDS011;48241;48.824;10.102;2022-12-07T00:50:50;11.95;;;9.70;;
62258;SDS011;48241;48.824;10.102;2022-12-07T00:53:16;14.35;;;10.73;;
62258;SDS011;48241;48.824;10.102;2022-12-07T00:55:43;14.05;;;11.23;;
62258;SDS011;48241;48.824;10.102;2022-12-07T00:58:09;13.98;;;11.00;;
62258;SDS011;48241;48.824;10.102;2022-12-07T01:00:36;13.77;;;10.63;;
62258;SDS011;48241;48.824;10.102;2022-12-07T01:03:04;15.20;;;11.07;;
62258;SDS011;48241;48.824;10.102;2022-12-07T01:05:30;15.23;;;11.05;;
62258;SDS011;48241;48.824;10.102;2022-12-07T01:07:56;13.32;;;10.38;;
62258;SDS011;48241;48.824;10.102;2022-12-07T01:10:21;14.30;;;11.07;;
62258;SDS011;48241;48.824;10.102;2022-12-07T01:12:47;14.43;;;10.57;;
62258;SDS011;48241;48.824;10.102;2022-12-07T01:15:13;12.50;;;9.90;;
62258;SDS011;48241;48.824;10.102;2022-12-07T01:17:38;13.00;;;10.27;;
62258;SDS011;48241;48.824;10.102;2022-12-07T01:20:04;13.50;;;10.10;;
62258;SDS011;48241;48.824;10.102;2022-12-07T01:22:30;13.30;;;10.68;;
62258;SDS011;48241;48.824;10.102;2022-12-07T01:24:56;16.25;;;11.10;;
62258;SDS011;48241;48.824;10.102;2022-12-07T01:27:22;14.05;;;11.02;;
62258;SDS011;48241;48.824;10.102;2022-12-07T01:29:47;13.32;;;9.82;;
62258;SDS011;48241;48.824;10.102;2022-12-07T01:32:13;14.85;;;9.93;;
62258;SDS011;48241;48.824;10.102;2022-12-07T01:34:38;14.45;;;10.05;;
62258;SDS011;48241;48.824;10.102;2022-12-07T01:37:04;12.80;;;9.65;;
62258;SDS011;48241;48.824;10.102;2022-12-07T01:39:30;13.13;;;10.18;;
62258;SDS011;48241;48.824;10.102;2022-12-07T01:41:55;14.00;;;9.98;;
62258;SDS011;48241;48.824;10.102;2022-12-07T01:46:53;13.30;;;10.13;;
62258;SDS011;48241;48.824;10.102;2022-12-07T01:49:33;15.77;;;11.00;;
62258;SDS011;48241;48.824;10.102;2022-12-07T01:52:26;14.23;;;10.30;;
62258;SDS011;48241;48.824;10.102;2022-12-07T01:55:09;13.95;;;10.10;;
62258;SDS011;48241;48.824;10.102;2022-12-07T01:57:39;14.77;;;11.07;;
62258;SDS011;48241;48.824;10.102;2022-12-07T02:00:08;15.43;;;11.02;;
62258;SDS011;48241;48.824;10.102;2022-12-07T02:02:36;17.52;;;11.15;;
62258;SDS011;48241;48.824;10.102;2022-12-07T02:05:08;14.27;;;11.15;;
62258;SDS011;48241;48.824;10.102;2022-12-07T02:07:34;17.23;;;12.07;;
62258;SDS011;48241;48.824;10.102;2022-12-07T02:10:12;15.90;;;11.68;;
62258;SDS011;48241;48.824;10.102;2022-12-07T02:12:47;16.73;;;11.52;;
62258;SDS011;48241;48.824;10.102;2022-12-07T02:15:15;16.97;;;11.40;;
62258;SDS011;48241;48.824;10.102;2022-12-07T02:17:45;15.18;;;11.52;;
62258;SDS011;48241;48.824;10.102;2022-12-07T02:25:41;16.92;;;11.68;;
62258;SDS011;48241;48.824;10.102;2022-12-07T02:28:29;16.13;;;12.02;;
62258;SDS011;48241;48.824;10.102;2022-12-07T02:31:01;15.55;;;11.43;;
62258;SDS011;48241;48.824;10.102;2022-12-07T02:33:34;17.88;;;12.35;;
62258;SDS011;48241;48.824;10.102;2022-12-07T02:38:47;16.88;;;11.90;;
62258;SDS011;48241;48.824;10.102;2022-12-07T02:44:03;17.65;;;12.48;;
62258;SDS011;48241;48.824;10.102;2022-12-07T02:46:37;15.77;;;11.48;;
62258;SDS011;48241;48.824;10.102;2022-12-07T02:49:14;17.33;;;12.52;;
62258;SDS011;48241;48.824;10.102;2022-12-07T02:51:41;17.05;;;12.02;;
62258;SDS011;48241;48.824;10.102;2022-12-07T02:54:12;16.58;;;11.98;;
62258;SDS011;48241;48.824;10.102;2022-12-07T02:56:44;18.90;;;13.05;;
62258;SDS011;48241;48.824;10.102;2022-12-07T03:13:25;20.05;;;12.57;;
62258;SDS011;48241;48.824;10.102;2022-12-07T03:16:03;18.92;;;12.57;;
62258;SDS011;48241;48.824;10.102;2022-12-07T03:18:51;18.35;;;12.32;;
62258;SDS011;48241;48.824;10.102;2022-12-07T03:21:23;18.95;;;13.32;;
62258;SDS011;48241;48.824;10.102;2022-12-07T03:23:53;20.73;;;13.82;;
62258;SDS011;48241;48.824;10.102;2022-12-07T03:26:22;18.75;;;13.07;;
62258;SDS011;48241;48.824;10.102;2022-12-07T03:28:54;19.35;;;12.85;;
62258;SDS011;48241;48.824;10.102;2022-12-07T03:31:24;19.25;;;14.05;;
62258;SDS011;48241;48.824;10.102;2022-12-07T03:41:51;18.27;;;13.10;;
62258;SDS011;48241;48.824;10.102;2022-12-07T03:44:17;21.85;;;14.13;;
62258;SDS011;48241;48.824;10.102;2022-12-07T03:49:25;18.73;;;12.45;;
62258;SDS011;48241;48.824;10.102;2022-12-07T03:52:17;18.17;;;12.85;;
62258;SDS011;48241;48.824;10.102;2022-12-07T03:55:00;18.33;;;11.93;;
62258;SDS011;48241;48.824;10.102;2022-12-07T03:57:33;22.17;;;12.93;;
62258;SDS011;48241;48.824;10.102;2022-12-07T04:00:01;20.38;;;13.48;;
62258;SDS011;48241;48.824;10.102;2022-12-07T04:02:29;19.33;;;12.60;;
62258;SDS011;48241;48.824;10.102;2022-12-07T04:04:55;19.90;;;13.43;;
62258;SDS011;48241;48.824;10.102;2022-12-07T04:07:21;20.05;;;13.23;;
62258;SDS011;48241;48.824;10.102;2022-12-07T04:09:47;19.50;;;13.10;;
62258;SDS011;48241;48.824;10.102;2022-12-07T04:12:13;20.40;;;13.20;;
62258;SDS011;48241;48.824;10.102;2022-12-07T04:14:38;19.60;;;13.50;;
62258;SDS011;48241;48.824;10.102;2022-12-07T04:17:04;19.58;;;13.27;;
62258;SDS011;48241;48.824;10.102;2022-12-07T04:19:30;22.27;;;13.63;;
62258;SDS011;48241;48.824;10.102;2022-12-07T04:21:58;19.48;;;13.05;;
62258;SDS011;48241;48.824;10.102;2022-12-07T04:24:25;19.65;;;12.93;;
62258;SDS011;48241;48.824;10.102;2022-12-07T04:26:51;16.02;;;12.45;;
62258;SDS011;48241;48.824;10.102;2022-12-07T04:29:17;17.45;;;12.25;;
62258;SDS011;48241;48.824;10.102;2022-12-07T04:31:44;18.42;;;12.60;;
62258;SDS011;48241;48.824;10.102;2022-12-07T04:34:10;18.38;;;12.50;;
62258;SDS011;48241;48.824;10.102;2022-12-07T04:36:37;18.08;;;11.82;;
62258;SDS011;48241;48.824;10.102;2022-12-07T04:39:03;17.30;;;11.82;;
62258;SDS011;48241;48.824;10.102;2022-12-07T04:41:30;17.13;;;12.13;;
62258;SDS011;48241;48.824;10.102;2022-12-07T04:43:57;16.30;;;10.23;;
62258;SDS011;48241;48.824;10.102;2022-12-07T04:46:24;16.20;;;10.50;;
62258;SDS011;48241;48.824;10.102;2022-12-07T04:48:51;15.43;;;9.40;;
62258;SDS011;48241;48.824;10.102;2022-12-07T04:51:21;14.75;;;9.18;;
62258;SDS011;48241;48.824;10.102;2022-12-07T04:53:49;15.13;;;11.10;;
62258;SDS011;48241;48.824;10.102;2022-12-07T04:56:15;17.45;;;11.25;;
62258;SDS011;48241;48.824;10.102;2022-12-07T04:58:41;17.73;;;11.20;;
62258;SDS011;48241;48.824;10.102;2022-12-07T05:01:07;15.43;;;10.60;;
62258;SDS011;48241;48.824;10.102;2022-12-07T05:03:33;17.70;;;12.25;;
62258;SDS011;48241;48.824;10.102;2022-12-07T05:06:00;21.95;;;12.32;;
62258;SDS011;48241;48.824;10.102;2022-12-07T05:08:26;16.05;;;11.07;;
62258;SDS011;48241;48.824;10.102;2022-12-07T05:10:51;16.75;;;11.43;;
62258;SDS011;48241;48.824;10.102;2022-12-07T05:13:17;16.75;;;11.50;;
62258;SDS011;48241;48.824;10.102;2022-12-07T05:15:42;15.70;;;9.65;;
62258;SDS011;48241;48.824;10.102;2022-12-07T05:18:09;12.57;;;8.27;;
62258;SDS011;48241;48.824;10.102;2022-12-07T05:20:37;13.80;;;8.30;;
62258;SDS011;48241;48.824;10.102;2022-12-07T05:23:07;15.77;;;9.18;;
62258;SDS011;48241;48.824;10.102;2022-12-07T05:25:33;13.57;;;8.98;;
62258;SDS011;48241;48.824;10.102;2022-12-07T05:27:58;16.83;;;10.40;;
62258;SDS011;48241;48.824;10.102;2022-12-07T05:30:24;13.75;;;9.88;;
62258;SDS011;48241;48.824;10.102;2022-12-07T05:32:51;12.98;;;9.43;;
62258;SDS011;48241;48.824;10.102;2022-12-07T05:35:17;14.50;;;8.90;;
62258;SDS011;48241;48.824;10.102;2022-12-07T05:37:43;11.77;;;7.47;;
62258;SDS011;48241;48.824;10.102;2022-12-07T05:40:10;10.05;;;7.28;;
62258;SDS011;48241;48.824;10.102;2022-12-07T05:42:36;15.73;;;9.35;;
62258;SDS011;48241;48.824;10.102;2022-12-07T05:45:02;12.20;;;8.38;;
62258;SDS011;48241;48.824;10.102;2022-12-07T05:47:28;11.93;;;7.47;;
62258;SDS011;48241;48.824;10.102;2022-12-07T05:49:54;9.25;;;6.53;;
62258;SDS011;48241;48.824;10.102;2022-12-07T05:52:19;10.95;;;7.28;;
62258;SDS011;48241;48.824;10.102;2022-12-07T05:54:46;11.35;;;7.30;;
62258;SDS011;48241;48.824;10.102;2022-12-07T05:57:11;9.05;;;6.90;;
62258;SDS011;48241;48.824;10.102;2022-12-07T05:59:37;10.80;;;6.75;;
62258;SDS011;48241;48.824;10.102;2022-12-07T06:02:06;9.77;;;6.68;;
62258;SDS011;48241;48.824;10.102;2022-12-07T06:04:35;9.45;;;6.72;;
62258;SDS011;48241;48.824;10.102;2022-12-07T06:07:03;10.52;;;7.20;;
62258;SDS011;48241;48.824;10.102;2022-12-07T06:09:30;11.45;;;7.70;;
62258;SDS011;48241;48.824;10.102;2022-12-07T06:11:56;11.18;;;7.38;;
62258;SDS011;48241;48.824;10.102;2022-12-07T06:14:41;11.05;;;7.97;;
62258;SDS011;48241;48.824;10.102;2022-12-07T06:17:07;13.77;;;8.80;;
62258;SDS011;48241;48.824;10.102;2022-12-07T06:19:32;13.77;;;9.60;;
62258;SDS011;48241;48.824;10.102;2022-12-07T06:21:58;14.73;;;10.27;;
62258;SDS011;48241;48.824;10.102;2022-12-07T06:24:24;14.40;;;8.73;;
62258;SDS011;48241;48.824;10.102;2022-12-07T06:26:50;13.90;;;8.90;;
62258;SDS011;48241;48.824;10.102;2022-12-07T06:29:16;17.38;;;12.00;;
62258;SDS011;48241;48.824;10.102;2022-12-07T06:31:42;13.07;;;8.50;;
62258;SDS011;48241;48.824;10.102;2022-12-07T06:34:15;13.07;;;8.23;;
62258;SDS011;48241;48.824;10.102;2022-12-07T06:36:42;12.90;;;8.88;;
62258;SDS011;48241;48.824;10.102;2022-12-07T06:39:08;14.77;;;10.13;;
62258;SDS011;48241;48.824;10.102;2022-12-07T06:41:35;17.13;;;10.60;;
62258;SDS011;48241;48.824;10.102;2022-12-07T06:44:02;19.20;;;12.32;;
62258;SDS011;48241;48.824;10.102;2022-12-07T06:46:28;20.58;;;12.70;;
62258;SDS011;48241;48.824;10.102;2022-12-07T06:48:54;23.40;;;15.68;;
62258;SDS011;48241;48.824;10.102;2022-12-07T06:51:20;26.50;;;15.70;;
62258;SDS011;48241;48.824;10.102;2022-12-07T06:53:45;25.30;;;14.70;;
62258;SDS011;48241;48.824;10.102;2022-12-07T06:56:11;21.70;;;15.15;;
62258;SDS011;48241;48.824;10.102;2022-12-07T06:58:37;23.33;;;15.23;;
62258;SDS011;48241;48.824;10.102;2022-12-07T07:01:08;25.10;;;15.38;;
62258;SDS011;48241;48.824;10.102;2022-12-07T07:03:38;23.23;;;15.10;;
62258;SDS011;48241;48.824;10.102;2022-12-07T07:06:04;23.80;;;14.60;;
62258;SDS011;48241;48.824;10.102;2022-12-07T07:08:31;25.70;;;15.60;;
62258;SDS011;48241;48.824;10.102;2022-12-07T07:10:56;23.17;;;14.80;;
62258;SDS011;48241;48.824;10.102;2022-12-07T07:13:22;25.38;;;14.68;;
62258;SDS011;48241;48.824;10.102;2022-12-07T07:15:48;24.55;;;15.15;;
62258;SDS011;48241;48.824;10.102;2022-12-07T07:18:13;24.33;;;14.45;;
62258;SDS011;48241;48.824;10.102;2022-12-07T07:20:39;27.10;;;15.98;;
62258;SDS011;48241;48.824;10.102;2022-12-07T07:23:05;24.63;;;15.20;;
62258;SDS011;48241;48.824;10.102;2022-12-07T07:25:30;20.50;;;11.82;;
62258;SDS011;48241;48.824;10.102;2022-12-07T07:27:56;24.52;;;15.68;;
62258;SDS011;48241;48.824;10.102;2022-12-07T07:30:22;25.63;;;15.50;;
62258;SDS011;48241;48.824;10.102;2022-12-07T07:32:47;25.80;;;15.57;;
62258;SDS011;48241;48.824;10.102;2022-12-07T07:35:13;27.52;;;16.35;;
62258;SDS011;48241;48.824;10.102;2022-12-07T07:37:39;24.48;;;15.73;;
62258;SDS011;48241;48.824;10.102;2022-12-07T07:40:05;33.72;;;17.10;;
62258;SDS011;48241;48.824;10.102;2022-12-07T07:42:32;31.98;;;17.60;;
62258;SDS011;48241;48.824;10.102;2022-12-07T07:44:58;26.73;;;16.02;;
62258;SDS011;48241;48.824;10.102;2022-12-07T07:47:23;23.25;;;15.27;;
62258;SDS011;48241;48.824;10.102;2022-12-07T07:49:49;24.48;;;15.45;;
62258;SDS011;48241;48.824;10.102;2022-12-07T07:54:52;27.13;;;16.02;;
62258;SDS011;48241;48.824;10.102;2022-12-07T07:57:18;37.53;;;18.98;;
62258;SDS011;48241;48.824;10.102;2022-12-07T07:59:43;39.08;;;22.25;;
62258;SDS011;48241;48.824;10.102;2022-12-07T08:02:13;37.40;;;21.25;;
62258;SDS011;48241;48.824;10.102;2022-12-07T08:04:43;24.13;;;15.75;;
62258;SDS011;48241;48.824;10.102;2022-12-07T08:07:10;25.15;;;15.68;;
62258;SDS011;48241;48.824;10.102;2022-12-07T08:09:36;20.63;;;13.88;;
62258;SDS011;48241;48.824;10.102;2022-12-07T08:12:02;23.35;;;15.48;;
62258;SDS011;48241;48.824;10.102;2022-12-07T08:14:28;21.73;;;13.40;;
62258;SDS011;48241;48.824;10.102;2022-12-07T08:16:54;19.98;;;13.65;;
62258;SDS011;48241;48.824;10.102;2022-12-07T08:19:19;17.00;;;11.20;;
62258;SDS011;48241;48.824;10.102;2022-12-07T08:21:45;19.38;;;12.75;;
62258;SDS011;48241;48.824;10.102;2022-12-07T08:24:11;23.08;;;13.35;;
62258;SDS011;48241;48.824;10.102;2022-12-07T08:26:37;15.82;;;10.00;;
62258;SDS011;48241;48.824;10.102;2022-12-07T08:29:02;12.35;;;8.32;;
62258;SDS011;48241;48.824;10.102;2022-12-07T08:31:28;12.32;;;8.23;;
62258;SDS011;48241;48.824;10.102;2022-12-07T08:33:54;10.23;;;7.40;;
62258;SDS011;48241;48.824;10.102;2022-12-07T08:36:20;10.38;;;7.22;;
62258;SDS011;48241;48.824;10.102;2022-12-07T08:38:46;11.07;;;6.75;;
62258;SDS011;48241;48.824;10.102;2022-12-07T08:41:12;9.98;;;6.65;;
62258;SDS011;48241;48.824;10.102;2022-12-07T08:43:37;9.65;;;6.65;;
62258;SDS011;48241;48.824;10.102;2022-12-07T08:46:11;9.85;;;5.65;;
62258;SDS011;48241;48.824;10.102;2022-12-07T08:48:44;6.30;;;5.03;;
62258;SDS011;48241;48.824;10.102;2022-12-07T08:51:15;6.40;;;4.70;;
62258;SDS011;48241;48.824;10.102;2022-12-07T08:53:41;9.13;;;5.05;;
62258;SDS011;48241;48.824;10.102;2022-12-07T08:56:08;6.65;;;4.53;;
62258;SDS011;48241;48.824;10.102;2022-12-07T08:58:34;7.47;;;4.90;;
62258;SDS011;48241;48.824;10.102;2022-12-07T09:01:02;7.88;;;5.15;;
62258;SDS011;48241;48.824;10.102;2022-12-07T09:03:28;8.32;;;5.68;;
62258;SDS011;48241;48.824;10.102;2022-12-07T09:05:53;5.32;;;4.43;;
62258;SDS011;48241;48.824;10.102;2022-12-07T09:08:20;7.55;;;5.38;;
62258;SDS011;48241;48.824;10.102;2022-12-07T09:10:47;7.72;;;5.38;;
62258;SDS011;48241;48.824;10.102;2022-12-07T09:13:13;6.25;;;4.70;;
62258;SDS011;48241;48.824;10.102;2022-12-07T09:15:38;6.90;;;4.72;;
62258;SDS011;48241;48.824;10.102;2022-12-07T09:18:04;6.78;;;4.65;;
62258;SDS011;48241;48.824;10.102;2022-12-07T09:20:30;5.72;;;4.15;;
62258;SDS011;48241;48.824;10.102;2022-12-07T09:22:56;6.63;;;4.93;;
62258;SDS011;48241;48.824;10.102;2022-12-07T09:25:21;15.77;;;7.40;;
62258;SDS011;48241;48.824;10.102;2022-12-07T09:27:47;16.30;;;8.38;;
62258;SDS011;48241;48.824;10.102;2022-12-07T09:30:13;14.30;;;7.60;;
62258;SDS011;48241;48.824;10.102;2022-12-07T09:32:39;10.98;;;6.30;;
62258;SDS011;48241;48.824;10.102;2022-12-07T09:35:04;7.63;;;5.05;;
62258;SDS011;48241;48.824;10.102;2022-12-07T09:37:30;6.75;;;5.03;;
62258;SDS011;48241;48.824;10.102;2022-12-07T09:40:00;6.97;;;4.55;;
62258;SDS011;48241;48.824;10.102;2022-12-07T09:42:36;9.20;;;5.28;;
62258;SDS011;48241;48.824;10.102;2022-12-07T09:45:19;7.22;;;5.07;;
62258;SDS011;48241;48.824;10.102;2022-12-07T09:47:52;7.90;;;5.60;;
62258;SDS011;48241;48.824;10.102;2022-12-07T09:50:23;8.68;;;5.18;;
62258;SDS011;48241;48.824;10.102;2022-12-07T09:52:51;6.30;;;5.03;;
62258;SDS011;48241;48.824;10.102;2022-12-07T09:55:27;8.48;;;5.50;;
62258;SDS011;48241;48.824;10.102;2022-12-07T09:57:53;7.50;;;5.20;;
62258;SDS011;48241;48.824;10.102;2022-12-07T10:00:21;7.60;;;5.20;;
62258;SDS011;48241;48.824;10.102;2022-12-07T10:05:22;9.38;;;5.70;;
62258;SDS011;48241;48.824;10.102;2022-12-07T10:07:53;6.95;;;5.10;;
62258;SDS011;48241;48.824;10.102;2022-12-07T10:10:26;7.30;;;5.18;;
62258;SDS011;48241;48.824;10.102;2022-12-07T10:13:01;10.65;;;6.80;;
62258;SDS011;48241;48.824;10.102;2022-12-07T10:21:02;7.97;;;5.50;;
62258;SDS011;48241;48.824;10.102;2022-12-07T10:24:13;8.53;;;5.97;;
62258;SDS011;48241;48.824;10.102;2022-12-07T10:31:43;8.23;;;5.68;;
62258;SDS011;48241;48.824;10.102;2022-12-07T10:36:54;6.57;;;4.85;;
62258;SDS011;48241;48.824;10.102;2022-12-07T10:42:16;8.73;;;5.50;;
62258;SDS011;48241;48.824;10.102;2022-12-07T10:44:44;9.10;;;5.30;;
62258;SDS011;48241;48.824;10.102;2022-12-07T10:56:23;8.90;;;6.18;;
62258;SDS011;48241;48.824;10.102;2022-12-07T10:59:02;9.93;;;6.28;;
62258;SDS011;48241;48.824;10.102;2022-12-07T11:01:50;8.25;;;6.18;;
62258;SDS011;48241;48.824;10.102;2022-12-07T11:05:28;9.73;;;6.38;;
62258;SDS011;48241;48.824;10.102;2022-12-07T11:07:41;9.20;;;6.47;;
62258;SDS011;48241;48.824;10.102;2022-12-07T16:00:29;12.23;;;8.80;;
62258;SDS011;48241;48.824;10.102;2022-12-07T16:02:55;12.18;;;8.52;;
62258;SDS011;48241;48.824;10.102;2022-12-07T16:05:20;12.70;;;8.48;;
62258;SDS011;48241;48.824;10.102;2022-12-07T16:07:46;11.57;;;8.73;;
62258;SDS011;48241;48.824;10.102;2022-12-07T16:10:14;12.80;;;8.80;;
62258;SDS011;48241;48.824;10.102;2022-12-07T16:12:40;13.65;;;9.00;;
62258;SDS011;48241;48.824;10.102;2022-12-07T16:15:06;11.45;;;8.90;;
62258;SDS011;48241;48.824;10.102;2022-12-07T16:17:32;12.80;;;8.25;;
62258;SDS011;48241;48.824;10.102;2022-12-07T16:19:57;11.40;;;8.35;;
62258;SDS011;48241;48.824;10.102;2022-12-07T16:22:23;13.35;;;8.95;;
62258;SDS011;48241;48.824;10.102;2022-12-07T16:24:49;13.38;;;8.93;;
62258;SDS011;48241;48.824;10.102;2022-12-07T16:27:17;13.43;;;9.25;;
62258;SDS011;48241;48.824;10.102;2022-12-07T16:29:50;12.82;;;9.32;;
62258;SDS011;48241;48.824;10.102;2022-12-07T16:32:24;13.98;;;9.13;;
62258;SDS011;48241;48.824;10.102;2022-12-07T16:34:50;12.00;;;8.63;;
62258;SDS011;48241;48.824;10.102;2022-12-07T16:37:15;13.13;;;9.27;;
62258;SDS011;48241;48.824;10.102;2022-12-07T16:39:41;15.13;;;9.95;;
62258;SDS011;48241;48.824;10.102;2022-12-07T16:42:07;14.57;;;9.45;;
62258;SDS011;48241;48.824;10.102;2022-12-07T16:44:32;13.07;;;9.35;;
62258;SDS011;48241;48.824;10.102;2022-12-07T16:46:59;12.13;;;8.90;;
62258;SDS011;48241;48.824;10.102;2022-12-07T16:49:54;14.15;;;9.98;;
62258;SDS011;48241;48.824;10.102;2022-12-07T16:52:20;13.90;;;10.63;;
62258;SDS011;48241;48.824;10.102;2022-12-07T16:54:46;17.45;;;10.55;;
62258;SDS011;48241;48.824;10.102;2022-12-07T16:57:13;15.40;;;10.50;;
62258;SDS011;48241;48.824;10.102;2022-12-07T16:59:45;15.55;;;10.43;;
62258;SDS011;48241;48.824;10.102;2022-12-07T17:02:11;15.43;;;10.20;;
62258;SDS011;48241;48.824;10.102;2022-12-07T17:04:37;13.95;;;10.07;;
62258;SDS011;48241;48.824;10.102;2022-12-07T17:07:20;14.20;;;9.68;;
62258;SDS011;48241;48.824;10.102;2022-12-07T17:09:46;16.17;;;10.02;;
62258;SDS011;48241;48.824;10.102;2022-12-07T17:15:00;13.63;;;8.63;;
62258;SDS011;48241;48.824;10.102;2022-12-07T17:18:05;11.80;;;8.48;;
62258;SDS011;48241;48.824;10.102;2022-12-07T17:20:31;15.52;;;8.20;;
62258;SDS011;48241;48.824;10.102;2022-12-07T17:23:17;12.93;;;8.10;;
62258;SDS011;48241;48.824;10.102;2022-12-07T17:25:44;13.65;;;9.02;;
62258;SDS011;48241;48.824;10.102;2022-12-07T17:28:09;12.93;;;8.35;;
62258;SDS011;48241;48.824;10.102;2022-12-07T22:15:22;10.65;;;6.93;;
62258;SDS011;48241;48.824;10.102;2022-12-07T22:17:49;9.75;;;6.18;;
62258;SDS011;48241;48.824;10.102;2022-12-07T22:20:15;11.57;;;6.38;;
62258;SDS011;48241;48.824;10.102;2022-12-07T22:22:42;9.13;;;6.45;;
62258;SDS011;48241;48.824;10.102;2022-12-07T22:25:08;9.07;;;6.18;;
62258;SDS011;48241;48.824;10.102;2022-12-07T22:27:34;11.52;;;5.85;;
62258;SDS011;48241;48.824;10.102;2022-12-07T22:29:59;10.90;;;6.32;;
62258;SDS011;48241;48.824;10.102;2022-12-07T22:32:25;10.32;;;7.00;;
62258;SDS011;48241;48.824;10.102;2022-12-07T22:34:50;10.25;;;6.35;;
62258;SDS011;48241;48.824;10.102;2022-12-07T22:37:16;13.70;;;7.15;;
62258;SDS011;48241;48.824;10.102;2022-12-07T22:39:42;9.38;;;6.65;;
62258;SDS011;48241;48.824;10.102;2022-12-07T22:42:07;11.10;;;6.82;;
62258;SDS011;48241;48.824;10.102;2022-12-07T22:44:33;11.40;;;7.03;;
62258;SDS011;48241;48.824;10.102;2022-12-07T22:46:59;10.77;;;7.15;;
62258;SDS011;48241;48.824;10.102;2022-12-07T22:49:24;11.60;;;6.80;;
62258;SDS011;48241;48.824;10.102;2022-12-07T22:51:50;13.25;;;7.80;;
62258;SDS011;48241;48.824;10.102;2022-12-07T22:54:15;12.57;;;7.93;;
62258;SDS011;48241;48.824;10.102;2022-12-07T22:56:42;11.02;;;7.30;;
62258;SDS011;48241;48.824;10.102;2022-12-07T22:59:08;12.23;;;7.50;;
62258;SDS011;48241;48.824;10.102;2022-12-07T23:01:35;11.80;;;7.63;;
62258;SDS011;48241;48.824;10.102;2022-12-07T23:04:01;11.77;;;7.40;;
62258;SDS011;48241;48.824;10.102;2022-12-07T23:06:27;12.13;;;6.88;;
62258;SDS011;48241;48.824;10.102;2022-12-07T23:08:55;11.50;;;7.25;;
62258;SDS011;48241;48.824;10.102;2022-12-07T23:11:25;11.52;;;7.55;;
62258;SDS011;48241;48.824;10.102;2022-12-07T23:14:15;12.70;;;8.02;;
62258;SDS011;48241;48.824;10.102;2022-12-07T23:17:00;11.30;;;7.30;;
62258;SDS011;48241;48.824;10.102;2022-12-07T23:19:26;9.77;;;6.18;;
62258;SDS011;48241;48.824;10.102;2022-12-07T23:21:52;12.55;;;7.25;;
62258;SDS011;48241;48.824;10.102;2022-12-07T23:24:18;12.65;;;7.80;;
62258;SDS011;48241;48.824;10.102;2022-12-07T23:26:44;12.57;;;7.93;;
62258;SDS011;48241;48.824;10.102;2022-12-07T23:29:10;12.70;;;7.18;;
62258;SDS011;48241;48.824;10.102;2022-12-07T23:31:37;11.23;;;6.85;;
62258;SDS011;48241;48.824;10.102;2022-12-07T23:34:03;11.88;;;6.97;;
62258;SDS011;48241;48.824;10.102;2022-12-07T23:36:29;12.88;;;7.97;;
62258;SDS011;48241;48.824;10.102;2022-12-07T23:38:55;12.05;;;7.70;;
62258;SDS011;48241;48.824;10.102;2022-12-07T23:41:23;13.95;;;7.90;;
62258;SDS011;48241;48.824;10.102;2022-12-07T23:43:54;14.23;;;8.10;;
62258;SDS011;48241;48.824;10.102;2022-12-07T23:46:22;13.23;;;7.60;;
62258;SDS011;48241;48.824;10.102;2022-12-07T23:48:53;14.18;;;8.15;;
62258;SDS011;48241;48.824;10.102;2022-12-07T23:51:20;13.50;;;7.40;;
62258;SDS011;48241;48.824;10.102;2022-12-07T23:53:47;13.77;;;8.35;;
62258;SDS011;48241;48.824;10.102;2022-12-07T23:56:21;12.15;;;7.47;;
62258;SDS011;48241;48.824;10.102;2022-12-07T23:58:48;9.57;;;6.57;;
